Campsall, United Kingdom
Current Conditions -  °F | °C
As of 2:20 PM on Tuesday 21 Oct 2014 (Local Time) from EGCN Reporting Station
Few Clouds Few Clouds  
Wind Chill: 50°   Ceiling: Unl
Heat Index: 50°   Visibility: 6mi
Dew Point: 39°   Wind: 26mph
Humidity: 66%   Direction: 270°W
Pressure: 29.62"   Gusts: NA
Location:  53.62°N, 1.18°W
Report Text: EGCN 211320Z 27023KT 9000 FEW024 10/04 Q1003
Loading
Personal Weather Stations






























Interactive Weather Map
Tropical Storm Tracking
New forecast layout! Learn more

10-Day Weather Forecast

Advertisements
Track Severe Weather on mobile